createdAt,value
2017-07-19T00:00:12.393Z,5.80
2017-07-19T00:02:39.090Z,5.63
2017-07-19T00:05:05.812Z,6.20
2017-07-19T00:07:32.497Z,6.20
2017-07-19T00:09:59.182Z,7.23
2017-07-19T00:12:25.904Z,6.20
2017-07-19T00:14:52.598Z,6.70
2017-07-19T00:17:19.289Z,7.00
2017-07-19T00:19:45.988Z,7.00
2017-07-19T00:22:12.693Z,7.13
2017-07-19T00:24:39.386Z,7.30
2017-07-19T00:27:06.097Z,6.77
2017-07-19T00:29:32.782Z,6.70
2017-07-19T00:31:59.483Z,7.03
2017-07-19T00:34:26.185Z,5.97
2017-07-19T00:36:52.880Z,6.10
2017-07-19T00:39:20.769Z,6.20
2017-07-19T00:41:47.489Z,6.50
2017-07-19T00:44:14.177Z,6.50
2017-07-19T00:46:40.867Z,7.20
2017-07-19T00:49:07.568Z,7.03
2017-07-19T00:51:34.246Z,7.30
2017-07-19T00:54:00.933Z,6.77
2017-07-19T00:56:27.666Z,6.50
2017-07-19T00:58:54.341Z,6.53
2017-07-19T01:01:21.041Z,7.30
2017-07-19T01:03:47.773Z,6.87
2017-07-19T01:06:14.474Z,7.10
2017-07-19T01:08:41.160Z,7.20
2017-07-19T01:11:07.866Z,7.37
2017-07-19T01:13:34.555Z,7.07
2017-07-19T01:16:01.237Z,6.93
2017-07-19T01:18:27.957Z,6.60
2017-07-19T01:20:54.661Z,7.30
2017-07-19T01:23:21.353Z,7.40
2017-07-19T01:25:48.088Z,7.63
2017-07-19T01:28:14.778Z,6.53
2017-07-19T01:30:41.462Z,6.23
2017-07-19T01:33:08.179Z,7.43
2017-07-19T01:35:34.861Z,7.87
2017-07-19T01:38:01.549Z,7.50
2017-07-19T01:40:28.259Z,8.10
2017-07-19T01:42:54.951Z,7.27
2017-07-19T01:45:21.645Z,7.40
2017-07-19T01:47:48.358Z,7.50
2017-07-19T01:50:15.046Z,6.47
2017-07-19T01:52:41.746Z,7.43
2017-07-19T01:55:08.483Z,6.90
2017-07-19T01:57:35.177Z,8.00
2017-07-19T02:00:01.865Z,6.87
2017-07-19T02:02:28.602Z,7.23
2017-07-19T02:04:55.283Z,7.53
2017-07-19T02:07:21.968Z,7.13
2017-07-19T02:09:48.682Z,7.47
2017-07-19T02:12:15.378Z,7.30
2017-07-19T02:14:42.062Z,7.40
2017-07-19T02:17:08.798Z,8.00
2017-07-19T02:19:35.484Z,7.33
2017-07-19T02:22:02.177Z,7.33
2017-07-19T02:24:28.878Z,8.03
2017-07-19T02:26:55.588Z,7.47
2017-07-19T02:29:22.271Z,8.40
2017-07-19T02:31:48.995Z,7.13
2017-07-19T02:34:15.686Z,7.30
2017-07-19T02:36:42.374Z,7.63
2017-07-19T02:39:09.077Z,8.10
2017-07-19T02:41:35.762Z,7.90
2017-07-19T02:44:02.453Z,9.37
2017-07-19T02:46:29.169Z,7.33
2017-07-19T02:48:55.861Z,8.30
2017-07-19T02:51:22.556Z,8.27
2017-07-19T02:53:49.262Z,8.37
2017-07-19T02:56:15.969Z,7.90
2017-07-19T02:58:42.652Z,8.10
2017-07-19T03:01:09.369Z,6.90
2017-07-19T03:03:36.054Z,8.20
2017-07-19T03:06:02.757Z,7.73
2017-07-19T03:08:29.482Z,7.93
2017-07-19T03:10:56.178Z,7.50
2017-07-19T03:13:22.862Z,7.53
2017-07-19T03:15:49.581Z,8.07
2017-07-19T03:18:16.263Z,8.57
2017-07-19T03:20:42.945Z,9.10
2017-07-19T03:23:09.651Z,8.93
2017-07-19T03:25:36.346Z,7.40
2017-07-19T03:28:03.041Z,7.97
2017-07-19T03:30:29.740Z,7.63
2017-07-19T03:32:56.455Z,8.10
2017-07-19T03:35:23.144Z,8.17
2017-07-19T03:37:49.884Z,8.40
2017-07-19T03:40:16.595Z,8.70
2017-07-19T03:42:43.276Z,8.00
2017-07-19T03:45:09.996Z,8.40
2017-07-19T03:47:36.682Z,8.23
2017-07-19T03:50:03.400Z,8.97
2017-07-19T03:52:30.110Z,9.40
2017-07-19T03:54:56.806Z,9.30
2017-07-19T03:57:23.503Z,8.57
2017-07-19T03:59:50.226Z,8.70
2017-07-19T04:02:16.909Z,8.40
2017-07-19T04:04:43.594Z,8.60
2017-07-19T04:07:10.305Z,9.30
2017-07-19T04:09:36.994Z,8.90
2017-07-19T04:12:03.695Z,8.60
2017-07-19T04:14:30.414Z,9.37
2017-07-19T04:16:57.178Z,8.83
2017-07-19T04:19:23.865Z,8.97
2017-07-19T04:21:50.579Z,9.27
2017-07-19T04:24:17.272Z,8.90
2017-07-19T04:26:43.961Z,8.00
2017-07-19T04:29:10.695Z,9.30
2017-07-19T04:31:37.381Z,9.90
2017-07-19T04:34:04.075Z,10.10
2017-07-19T04:36:30.786Z,10.07
2017-07-19T04:38:57.478Z,10.10
2017-07-19T04:41:24.166Z,10.27
2017-07-19T04:43:50.904Z,10.17
2017-07-19T04:46:17.594Z,10.27
2017-07-19T04:48:44.277Z,9.80
2017-07-19T04:51:10.987Z,9.77
2017-07-19T04:53:37.695Z,10.20
2017-07-19T04:56:04.424Z,11.13
2017-07-19T04:58:31.158Z,11.17
2017-07-19T05:00:57.858Z,10.97
2017-07-19T05:03:24.574Z,10.13
2017-07-19T05:05:51.280Z,11.00
2017-07-19T05:08:17.982Z,10.90
2017-07-19T05:10:44.669Z,10.90
2017-07-19T05:13:11.399Z,10.37
2017-07-19T05:15:38.099Z,11.10
2017-07-19T05:18:04.795Z,9.13
2017-07-19T05:20:31.502Z,9.83
2017-07-19T05:22:58.200Z,10.60
2017-07-19T05:25:24.892Z,10.43
2017-07-19T05:27:51.633Z,10.87
2017-07-19T05:30:18.332Z,9.93
2017-07-19T05:32:45.021Z,9.10
2017-07-19T05:35:11.725Z,9.33
2017-07-19T05:37:38.423Z,10.30
2017-07-19T05:40:05.121Z,10.97
2017-07-19T05:42:31.865Z,10.73
2017-07-19T05:44:58.564Z,11.60
2017-07-19T05:47:25.270Z,11.13
2017-07-19T05:49:52.002Z,11.20
2017-07-19T05:52:18.698Z,10.70
2017-07-19T05:54:45.422Z,10.00
2017-07-19T05:57:12.132Z,11.03
2017-07-19T05:59:38.847Z,11.73
2017-07-19T06:02:05.548Z,11.30
2017-07-19T06:04:32.374Z,11.80
2017-07-19T06:06:59.062Z,11.70
2017-07-19T06:09:25.761Z,11.33
2017-07-19T06:11:52.472Z,11.47
2017-07-19T06:14:19.175Z,10.87
2017-07-19T06:16:45.885Z,11.67
2017-07-19T06:19:12.605Z,10.33
2017-07-19T06:21:39.308Z,10.57
2017-07-19T06:24:06.003Z,10.00
2017-07-19T06:26:32.741Z,9.80
2017-07-19T06:28:59.438Z,10.30
2017-07-19T06:31:26.146Z,9.83
2017-07-19T06:33:52.861Z,10.10
2017-07-19T06:36:19.561Z,8.43
2017-07-19T06:38:46.260Z,9.33
2017-07-19T06:41:12.970Z,9.97
2017-07-19T06:43:39.661Z,9.10
2017-07-19T06:46:06.359Z,10.03
2017-07-19T06:48:33.082Z,9.13
2017-07-19T06:50:59.778Z,9.63
2017-07-19T06:53:26.476Z,10.20
2017-07-19T06:55:53.197Z,10.60
2017-07-19T06:58:19.903Z,10.47
2017-07-19T07:00:46.603Z,9.93
2017-07-19T07:03:13.323Z,9.00
2017-07-19T07:05:40.013Z,9.57
2017-07-19T07:08:06.705Z,9.30
2017-07-19T07:10:33.407Z,10.20
2017-07-19T07:13:00.111Z,9.53
2017-07-19T07:15:26.804Z,9.03
2017-07-19T07:17:53.505Z,9.57
2017-07-19T07:20:20.194Z,9.57
2017-07-19T07:22:46.884Z,9.20
2017-07-19T07:25:13.606Z,7.87
2017-07-19T07:27:40.304Z,9.17
2017-07-19T07:30:07.007Z,8.90
2017-07-19T07:32:33.732Z,9.10
2017-07-19T07:35:00.435Z,9.20
2017-07-19T07:37:27.126Z,8.03
2017-07-19T07:39:53.849Z,8.80
2017-07-19T07:42:20.566Z,9.30
2017-07-19T07:44:47.283Z,8.43
2017-07-19T07:47:14.007Z,9.37
2017-07-19T07:49:40.704Z,8.50
2017-07-19T07:52:07.389Z,8.43
2017-07-19T07:54:34.091Z,8.50
2017-07-19T07:57:00.800Z,8.53
2017-07-19T07:59:27.511Z,7.83
2017-07-19T08:01:54.260Z,7.43
2017-07-19T08:04:20.953Z,8.30
2017-07-19T08:06:47.669Z,8.10
2017-07-19T08:09:14.393Z,7.50
2017-07-19T08:11:41.180Z,6.20
2017-07-19T08:14:07.870Z,8.60
2017-07-19T08:16:34.581Z,8.23
2017-07-19T08:19:01.274Z,7.50
2017-07-19T08:21:27.981Z,8.40
2017-07-19T08:23:54.690Z,8.23
2017-07-19T08:26:21.378Z,7.50
2017-07-19T08:28:48.070Z,8.27
2017-07-19T08:31:14.776Z,7.83
2017-07-19T08:33:41.463Z,7.90
2017-07-19T08:36:08.159Z,7.53
2017-07-19T08:38:34.871Z,8.03
2017-07-19T08:41:01.570Z,7.40
2017-07-19T08:43:28.275Z,7.40
2017-07-19T08:45:55.032Z,6.90
2017-07-19T08:48:21.730Z,7.13
2017-07-19T08:50:48.437Z,6.80
2017-07-19T08:53:15.134Z,6.43
2017-07-19T08:55:41.825Z,6.73
2017-07-19T08:58:08.530Z,7.30
2017-07-19T09:00:35.237Z,6.37
2017-07-19T09:03:01.930Z,6.90
2017-07-19T09:05:28.626Z,6.83
2017-07-19T09:07:55.343Z,7.27
2017-07-19T09:10:22.048Z,6.80
2017-07-19T09:12:48.738Z,6.20
2017-07-19T09:15:15.449Z,6.57
2017-07-19T09:17:42.134Z,5.90
2017-07-19T09:20:08.827Z,6.37
2017-07-19T09:22:35.545Z,5.37
2017-07-19T09:25:02.233Z,5.83
2017-07-19T09:27:28.932Z,5.20
2017-07-19T09:29:55.641Z,5.93
2017-07-19T09:32:43.155Z,5.43
2017-07-19T09:35:09.882Z,5.50
2017-07-19T09:37:36.575Z,5.50
2017-07-19T09:40:03.265Z,5.90
2017-07-19T09:42:29.981Z,5.60
2017-07-19T09:44:56.680Z,6.00
2017-07-19T09:47:23.386Z,6.30
2017-07-19T09:49:50.080Z,5.60
2017-07-19T09:52:16.771Z,6.13
2017-07-19T09:54:43.463Z,6.80
2017-07-19T09:57:10.190Z,7.43
2017-07-19T09:59:36.877Z,6.20
2017-07-19T10:02:03.578Z,6.43
2017-07-19T10:04:30.293Z,6.70
2017-07-19T10:06:56.988Z,6.27
2017-07-19T10:09:23.693Z,5.73
2017-07-19T10:11:50.412Z,6.40
2017-07-19T10:14:17.104Z,6.27
2017-07-19T10:16:43.804Z,5.57
2017-07-19T10:19:10.526Z,5.97
2017-07-19T10:21:37.214Z,5.40
2017-07-19T10:24:03.909Z,5.87
2017-07-19T10:26:30.633Z,5.20
2017-07-19T10:28:57.313Z,5.83
2017-07-19T10:31:24.039Z,5.70
2017-07-19T10:33:50.750Z,5.60
2017-07-19T10:36:17.441Z,4.90
2017-07-19T10:38:44.123Z,5.37
2017-07-19T10:41:10.831Z,5.53
2017-07-19T10:43:37.536Z,5.23
2017-07-19T10:46:04.226Z,4.97
2017-07-19T10:48:30.937Z,4.23
2017-07-19T10:50:57.764Z,4.70
2017-07-19T10:53:24.478Z,4.67
2017-07-19T10:55:51.181Z,5.13
2017-07-19T10:58:17.897Z,5.20
2017-07-19T11:00:44.590Z,5.03
2017-07-19T11:03:11.314Z,5.00
2017-07-19T11:05:38.005Z,4.60
2017-07-19T11:08:04.693Z,4.53
2017-07-19T11:10:31.390Z,5.30
2017-07-19T11:12:58.087Z,5.10
2017-07-19T11:15:24.783Z,4.50
2017-07-19T11:17:51.483Z,3.47
2017-07-19T11:20:18.182Z,4.20
2017-07-19T11:22:44.866Z,4.43
2017-07-19T11:25:11.582Z,4.20
2017-07-19T11:27:38.275Z,4.67
2017-07-19T11:30:04.979Z,5.80
2017-07-19T11:32:31.703Z,5.10
2017-07-19T11:34:58.400Z,5.20
2017-07-19T11:37:25.090Z,5.00
2017-07-19T11:39:51.794Z,5.13
2017-07-19T11:42:18.483Z,7.27
2017-07-19T11:44:45.185Z,6.83
2017-07-19T11:47:11.897Z,7.47
2017-07-19T11:49:38.587Z,4.87
2017-07-19T11:52:05.268Z,4.57
2017-07-19T11:54:31.970Z,5.47
2017-07-19T11:56:58.671Z,4.80
2017-07-19T11:59:25.371Z,5.10
2017-07-19T12:01:52.093Z,5.23
2017-07-19T12:04:18.793Z,5.90
2017-07-19T12:06:45.490Z,5.77
2017-07-19T12:09:12.219Z,5.93
2017-07-19T12:11:38.916Z,4.53
2017-07-19T12:14:05.605Z,4.60
2017-07-19T12:16:32.333Z,5.03
2017-07-19T12:18:59.024Z,5.20
2017-07-19T12:21:25.708Z,5.33
2017-07-19T12:23:52.433Z,5.60
2017-07-19T12:26:19.162Z,5.60
2017-07-19T12:28:45.845Z,5.30
2017-07-19T12:31:12.538Z,5.20
2017-07-19T12:33:39.254Z,4.80
2017-07-19T12:36:05.935Z,5.60
2017-07-19T12:38:32.640Z,4.67
2017-07-19T12:40:59.345Z,4.73
2017-07-19T12:43:26.043Z,4.70
2017-07-19T12:45:52.787Z,5.30
2017-07-19T12:48:19.495Z,4.93
2017-07-19T12:50:46.187Z,4.43
2017-07-19T12:53:12.896Z,4.50
2017-07-19T12:55:39.582Z,4.30
2017-07-19T12:58:06.279Z,4.83
2017-07-19T13:00:32.990Z,4.33
2017-07-19T13:02:59.678Z,5.07
2017-07-19T13:05:26.364Z,4.90
2017-07-19T13:07:53.069Z,6.00
2017-07-19T13:10:19.763Z,5.30
2017-07-19T13:12:46.457Z,5.00
2017-07-19T13:15:13.182Z,5.50
2017-07-19T13:17:39.881Z,4.87
2017-07-19T13:20:06.577Z,5.30
2017-07-19T13:22:33.267Z,4.97
2017-07-19T13:24:59.967Z,5.60
2017-07-19T13:27:26.653Z,5.37
2017-07-19T13:29:53.355Z,4.80
2017-07-19T13:32:20.035Z,4.63
2017-07-19T13:34:46.720Z,4.07
2017-07-19T13:37:13.427Z,4.60
2017-07-19T13:39:40.114Z,4.60
2017-07-19T13:42:06.799Z,3.70
2017-07-19T13:44:33.510Z,4.60
2017-07-19T13:47:00.207Z,4.10
2017-07-19T13:49:26.903Z,4.67
2017-07-19T13:51:53.631Z,4.40
2017-07-19T13:54:20.318Z,4.23
2017-07-19T13:56:47.003Z,4.50
2017-07-19T13:59:13.722Z,4.90
2017-07-19T14:01:40.405Z,5.10
2017-07-19T14:04:07.119Z,6.13
2017-07-19T14:06:33.825Z,6.23
2017-07-19T14:09:00.509Z,5.23
2017-07-19T14:11:27.202Z,5.60
2017-07-19T14:13:53.913Z,4.87
2017-07-19T14:16:20.597Z,5.00
2017-07-19T14:18:47.281Z,5.17
2017-07-19T14:21:13.987Z,5.37
2017-07-19T14:23:40.674Z,4.03
2017-07-19T14:26:07.358Z,4.10
2017-07-19T14:28:34.093Z,3.67
2017-07-19T14:31:00.786Z,3.37
2017-07-19T14:33:27.473Z,5.23
2017-07-19T14:35:54.204Z,4.60
2017-07-19T14:38:20.901Z,4.20
2017-07-19T14:40:47.590Z,4.23
2017-07-19T14:43:14.331Z,4.30
2017-07-19T14:45:41.016Z,4.20
2017-07-19T14:48:07.699Z,3.90
2017-07-19T14:50:34.404Z,3.40
2017-07-19T14:53:01.097Z,2.80
2017-07-19T14:55:27.788Z,3.40
2017-07-19T14:57:54.493Z,2.77
2017-07-19T15:00:21.190Z,3.53
2017-07-19T15:02:47.900Z,3.10
2017-07-19T15:05:14.597Z,3.23
2017-07-19T15:07:41.293Z,3.53
2017-07-19T15:10:07.976Z,2.70
2017-07-19T15:12:34.710Z,2.47
2017-07-19T15:15:01.399Z,3.03
2017-07-19T15:17:28.191Z,3.70
2017-07-19T15:19:55.093Z,2.70
2017-07-19T15:22:21.853Z,3.43
2017-07-19T15:24:48.628Z,2.90
2017-07-19T15:27:15.388Z,2.90
2017-07-19T15:29:42.153Z,3.10
2017-07-19T15:32:08.848Z,2.83
2017-07-19T15:34:35.552Z,3.30
2017-07-19T15:37:02.257Z,3.03
2017-07-19T15:39:28.983Z,3.07
2017-07-19T15:41:55.702Z,2.90
2017-07-19T15:44:22.386Z,3.87
2017-07-19T15:46:49.075Z,4.60
2017-07-19T15:49:15.794Z,4.57
2017-07-19T15:51:42.487Z,5.43
2017-07-19T15:54:09.212Z,5.77
2017-07-19T15:56:35.927Z,5.87
2017-07-19T15:59:02.615Z,5.10
2017-07-19T16:01:29.310Z,5.77
2017-07-19T16:03:56.029Z,5.50
2017-07-19T16:06:22.725Z,5.77
2017-07-19T16:08:49.413Z,4.97
2017-07-19T16:11:16.140Z,4.60
2017-07-19T16:13:42.848Z,4.50
2017-07-19T16:16:09.555Z,6.23
2017-07-19T16:18:36.285Z,5.63
2017-07-19T16:21:02.985Z,5.80
2017-07-19T16:23:29.675Z,4.90
2017-07-19T16:25:56.406Z,5.90
2017-07-19T16:28:23.089Z,4.63
2017-07-19T16:30:49.780Z,4.80
2017-07-19T16:33:16.507Z,4.97
2017-07-19T16:35:43.214Z,7.10
2017-07-19T16:38:09.932Z,5.93
2017-07-19T16:40:36.658Z,5.90
2017-07-19T16:43:03.359Z,5.27
2017-07-19T16:45:30.046Z,4.77
2017-07-19T16:47:56.789Z,5.33
2017-07-19T16:50:23.477Z,5.00
2017-07-19T16:52:50.193Z,4.70
2017-07-19T16:55:16.893Z,5.27
2017-07-19T16:57:43.588Z,5.13
2017-07-19T17:00:10.277Z,5.57
2017-07-19T17:02:36.982Z,5.00
2017-07-19T17:05:03.672Z,4.70
2017-07-19T17:07:30.365Z,5.13
2017-07-19T17:09:57.091Z,5.30
2017-07-19T17:12:28.901Z,5.50
2017-07-19T17:14:55.671Z,5.80
2017-07-19T17:17:22.413Z,4.90
2017-07-19T17:19:49.103Z,4.73
2017-07-19T17:22:15.804Z,5.33
2017-07-19T17:24:42.514Z,5.17
2017-07-19T17:27:09.223Z,6.13
2017-07-19T17:29:35.927Z,6.33
2017-07-19T17:32:02.634Z,4.97
2017-07-19T17:34:29.351Z,6.03
2017-07-19T17:36:56.050Z,5.13
2017-07-19T17:39:22.757Z,4.70
2017-07-19T17:41:49.443Z,5.60
2017-07-19T17:44:16.132Z,5.30
2017-07-19T17:46:42.860Z,5.27
2017-07-19T17:49:09.597Z,6.67
2017-07-19T17:51:36.305Z,5.30
2017-07-19T17:54:03.271Z,5.67
2017-07-19T17:56:29.976Z,5.47
2017-07-19T17:58:56.668Z,4.37
2017-07-19T18:01:23.435Z,4.60
2017-07-19T18:03:50.565Z,5.70
2017-07-19T18:06:17.276Z,4.90
2017-07-19T18:08:44.009Z,4.90
2017-07-19T18:11:11.134Z,4.63
2017-07-19T18:13:37.856Z,4.23
2017-07-19T18:16:04.617Z,4.97
2017-07-19T18:18:31.323Z,4.90
2017-07-19T18:20:58.049Z,4.93
2017-07-19T18:23:24.786Z,5.43
2017-07-19T18:25:51.506Z,5.23
2017-07-19T18:28:18.262Z,6.53
2017-07-19T18:30:45.195Z,5.43
2017-07-19T18:33:11.913Z,4.50
2017-07-19T18:35:38.648Z,4.30
2017-07-19T18:38:05.588Z,4.20
2017-07-19T18:40:32.570Z,4.53
2017-07-19T18:42:59.285Z,5.10
2017-07-19T18:45:26.001Z,3.90
2017-07-19T18:47:52.724Z,3.93
2017-07-19T18:50:19.430Z,4.40
2017-07-19T18:52:46.174Z,4.20
2017-07-19T18:55:12.933Z,4.17
2017-07-19T18:57:39.684Z,4.03
2017-07-19T19:00:06.398Z,3.50
2017-07-19T19:02:53.213Z,4.07
2017-07-19T19:05:20.038Z,4.20
2017-07-19T19:07:46.751Z,3.90
2017-07-19T19:10:13.490Z,3.67
2017-07-19T19:12:40.210Z,3.23
2017-07-19T19:15:06.929Z,3.80
2017-07-19T19:17:33.648Z,3.40
2017-07-19T19:20:00.386Z,4.83
2017-07-19T19:22:27.115Z,4.67
2017-07-19T19:24:53.844Z,3.33
2017-07-19T19:27:20.624Z,3.53
2017-07-19T19:29:47.406Z,3.17
2017-07-19T19:32:14.131Z,3.40
2017-07-19T19:34:40.893Z,3.67
2017-07-19T19:37:07.590Z,3.10
2017-07-19T19:39:34.318Z,4.20
2017-07-19T19:42:01.037Z,3.20
2017-07-19T19:44:27.767Z,3.23
2017-07-19T19:46:54.549Z,3.27
2017-07-19T19:49:21.280Z,3.50
2017-07-19T19:51:48.126Z,3.83
2017-07-19T19:54:14.832Z,3.40
2017-07-19T19:56:41.554Z,3.77
2017-07-19T19:59:08.262Z,4.10
2017-07-19T20:01:34.986Z,3.93
2017-07-19T20:04:40.665Z,4.30
2017-07-19T20:07:07.405Z,3.53
2017-07-19T20:09:34.186Z,6.47
2017-07-19T20:12:00.920Z,9.20
2017-07-19T20:14:27.667Z,4.70
2017-07-19T20:16:54.406Z,4.40
2017-07-19T20:19:28.479Z,4.67
2017-07-19T20:21:55.258Z,4.10
2017-07-19T20:24:22.023Z,3.77
2017-07-19T20:26:48.836Z,3.60
2017-07-19T20:29:21.422Z,4.00
2017-07-19T20:31:48.137Z,4.50
2017-07-19T20:34:15.699Z,4.40
2017-07-19T20:36:42.397Z,5.30
2017-07-19T20:39:09.101Z,4.57
2017-07-19T20:41:35.829Z,4.10
2017-07-19T20:44:02.530Z,5.03
2017-07-19T20:46:29.246Z,4.77
2017-07-19T20:48:55.985Z,4.20
2017-07-19T20:51:22.678Z,8.57
2017-07-19T20:53:49.655Z,4.27
2017-07-19T20:56:16.376Z,4.40
2017-07-19T20:58:43.085Z,4.97
2017-07-19T21:01:13.493Z,4.87
2017-07-19T21:03:40.223Z,5.40
2017-07-19T21:06:06.919Z,4.73
2017-07-19T21:08:33.613Z,4.47
2017-07-19T21:11:00.315Z,4.70
2017-07-19T21:13:27.407Z,5.30
2017-07-19T21:15:54.127Z,5.30
2017-07-19T21:18:20.853Z,6.40
2017-07-19T21:20:47.544Z,5.90
2017-07-19T21:23:16.583Z,5.50
2017-07-19T21:25:43.283Z,5.20
2017-07-19T21:28:09.976Z,5.23
2017-07-19T21:30:36.677Z,5.17
2017-07-19T21:33:03.447Z,4.90
2017-07-19T21:35:30.138Z,4.97
2017-07-19T21:37:56.822Z,5.40
2017-07-19T21:40:23.526Z,5.43
2017-07-19T21:42:50.221Z,5.87
2017-07-19T21:45:16.925Z,5.40
2017-07-19T21:47:43.648Z,5.37
2017-07-19T21:50:10.332Z,5.30
2017-07-19T21:52:37.018Z,6.07
2017-07-19T21:55:03.726Z,6.53
2017-07-19T21:57:30.414Z,5.70
2017-07-19T21:59:57.103Z,5.80
2017-07-19T22:02:23.822Z,5.83
2017-07-19T22:04:50.507Z,6.03
2017-07-19T22:07:17.184Z,5.27
2017-07-19T22:09:43.909Z,6.20
2017-07-19T22:12:10.589Z,5.73
2017-07-19T22:14:37.284Z,5.67
2017-07-19T22:17:03.985Z,5.60
2017-07-19T22:19:30.741Z,5.80
2017-07-19T22:21:57.443Z,6.30
2017-07-19T22:24:24.161Z,5.80
2017-07-19T22:26:50.854Z,6.03
2017-07-19T22:29:17.533Z,5.70
2017-07-19T22:31:44.228Z,5.60
2017-07-19T22:34:10.926Z,5.67
2017-07-19T22:36:37.618Z,5.37
2017-07-19T22:39:04.346Z,6.20
2017-07-19T22:41:31.030Z,5.97
2017-07-19T22:43:57.712Z,5.87
2017-07-19T22:46:24.413Z,6.07
2017-07-19T22:48:51.133Z,6.13
2017-07-19T22:51:17.826Z,5.50
2017-07-19T22:53:44.546Z,6.30
2017-07-19T22:56:11.297Z,5.20
2017-07-19T22:58:37.987Z,6.50
2017-07-19T23:01:04.708Z,5.73
2017-07-19T23:03:31.390Z,6.10
2017-07-19T23:05:58.081Z,5.77
2017-07-19T23:08:24.784Z,6.00
2017-07-19T23:10:51.476Z,5.40
2017-07-19T23:13:18.165Z,6.47
2017-07-19T23:15:44.882Z,6.10
2017-07-19T23:18:11.605Z,5.80
2017-07-19T23:20:38.303Z,6.43
2017-07-19T23:23:07.917Z,5.57
2017-07-19T23:25:34.604Z,5.97
2017-07-19T23:28:01.293Z,6.50
2017-07-19T23:30:28.043Z,7.27
2017-07-19T23:32:54.738Z,5.80
2017-07-19T23:35:21.440Z,6.57
2017-07-19T23:37:48.145Z,6.70
2017-07-19T23:40:14.839Z,6.53
2017-07-19T23:42:41.554Z,6.27
2017-07-19T23:45:08.255Z,6.33
2017-07-19T23:47:34.943Z,6.30
2017-07-19T23:50:02.558Z,6.80
2017-07-19T23:52:29.274Z,6.80
2017-07-19T23:54:55.965Z,6.20
2017-07-19T23:57:22.658Z,6.83
2017-07-19T23:59:49.372Z,7.07
